Main page
METAR-TAF:

METAR-TAF

Airports :

Newport State Airport

Newport, Rhode Island, United States

latitude: 41-31-48N, longitude: 071-17-01W, elevation: 171 ft

Current weather observation

The report was made 1 hour and 6 minutes ago, at 00:53 UTC
Wind 9 mph from the South/Southwest
Temperature 43°F
Humidity 61%
Pressure 30.42 in. Hg
Visibility: 10 miles
Few clouds at a height of 3300 ft

METAR: KUUU 090053Z AUTO 20008KT 10SM FEW033 06/M01 A3042 RMK AO2 SLP301 T00561006

Time: 20:59 (01:59 UTC)


TAF: missing

Weather observations and forecasts of more than 4000 airports (METAR and TAF reports).

The available stations are represented by yellow and red dots on the map.

Hover mouse over dot to see the name of the station.

Then click to see weather observations and forecasts.

To change the map : click on the green buttons with a black cross to zoom in, on the green button with a dash to zoom out, or on the green arrows for adjacent maps.


METAR-TAF: